| time (UTC) | temp C | wind direction | speed KPH | gust KPH | rain 1hr cm | rain 24hr cm | rain mn cm | humidity % | barometer mb |
| 20260510045417 | 7 | 282 | 3.2 | 8.0 | 0.00 | 0.00 | 0.00 | 100 | 1006.6 |
| 20260510043917 | 7 | 241 | 0.0 | 0.0 | 0.00 | 0.00 | 0.00 | 100 | 1006.3 |
| 20260510042417 | 7 | 241 | 0.0 | 0.0 | 0.00 | 0.00 | 0.00 | 100 | 1006.2 |
| 20260510040917 | 7 | 231 | 0.0 | 0.0 | 0.00 | 0.00 | 0.00 | 100 | 1006.0 |
| 20260510035417 | 7 | 231 | 0.0 | 0.0 | 0.00 | 0.00 | 0.00 | 100 | 1005.1 |
| 20260510033917 | 7 | 231 | 0.0 | 0.0 | 0.00 | 0.00 | 0.00 | 100 | 1005.1 |
| 20260510032417 | 7 | 231 | 0.0 | 0.0 | 0.00 | 0.00 | 0.00 | 100 | 1005.1 |
| 20260510030917 | 8 | 231 | 0.0 | 0.0 | 0.00 | 0.00 | 0.00 | 100 | 1005.0 |
| 20260510025417 | 8 | 206 | 3.2 | 3.2 | 0.00 | 0.00 | 0.00 | 100 | 1005.0 |
| 20260510022417 | 8 | 207 | 3.2 | 6.4 | 0.00 | 0.00 | 0.00 | 100 | 1004.9 |
| 20260510015417 | 8 | 189 | 3.2 | 6.4 | 0.00 | 0.00 | 0.00 | 100 | 1004.6 |
| 20260510013917 | 9 | 228 | 6.4 | 8.0 | 0.00 | 0.00 | 0.00 | 100 | 1004.3 |
| 20260510012417 | 9 | 221 | 4.8 | 8.0 | 0.00 | 0.00 | 0.00 | 100 | 1004.2 |
| 20260510002417 | 10 | 222 | 8.0 | 12.9 | 0.00 | 0.00 | 0.00 | 100 | 1003.2 |
| 20260510000917 | 10 | 227 | 1.6 | 4.8 | 0.00 | 0.00 | 0.00 | 100 | 1002.8 |
| 20260509235417 | 10 | 225 | 8.0 | 12.9 | 0.00 | 0.00 | 0.00 | 100 | 1002.9 |
| 20260509233917 | 10 | 221 | 8.0 | 12.9 | 0.00 | 0.00 | 0.00 | 100 | 1002.3 |
| 20260509230917 | 9 | 247 | 4.8 | 9.7 | 0.00 | 0.00 | 0.00 | 100 | 1002.7 |
| 20260509225418 | 9 | 248 | 9.7 | 17.7 | 0.00 | 0.00 | 0.00 | 100 | 1004.2 |
| 20260509223917 | 10 | 283 | 11.3 | 14.5 | 0.00 | 0.00 | 0.00 | 100 | 1004.2 |
| 20260509222417 | 12 | 278 | 32.2 | 43.5 | 0.00 | 0.00 | 0.00 | 100 | 1004.8 |
| 20260509220918 | 15 | 256 | 4.8 | 6.4 | 0.00 | 0.00 | 0.00 | 96 | 1002.4 |
| 20260509215417 | 15 | 253 | 3.2 | 6.4 | 0.00 | 0.00 | 0.00 | 91 | 1002.0 |
| 20260509213917 | 15 | 173 | 6.4 | 9.7 | 0.00 | 0.00 | 0.00 | 93 | 1002.1 |
| 20260509212417 | 15 | 184 | 3.2 | 1.6 | 0.00 | 0.00 | 0.00 | 95 | 1001.7 |
| 20260509205417 | 15 | 212 | 8.0 | 14.5 | 0.00 | 0.00 | 0.00 | 88 | 1002.2 |
| 20260509203917 | 16 | 210 | 8.0 | 12.9 | 0.00 | 0.00 | 0.00 | 87 | 1002.3 |
| 20260509202417 | 15 | 222 | 8.0 | 14.5 | 0.00 | 0.00 | 0.00 | 88 | 1002.6 |
| 20260509200917 | 16 | 225 | 8.0 | 12.9 | 0.00 | 0.00 | 0.00 | 84 | 1003.1 |
| 20260509195417 | 16 | 242 | 8.0 | 11.3 | 0.00 | 0.00 | 0.00 | 85 | 1003.2 |
| 20260509192417 | 17 | 211 | 11.3 | 19.3 | 0.00 | 0.00 | 0.00 | 81 | 1003.3 |
| 20260509190917 | 17 | 248 | 9.7 | 16.1 | 0.00 | 0.00 | 0.00 | 86 | 1003.4 |
| 20260509183917 | 17 | 235 | 16.1 | 22.5 | 0.00 | 0.00 | 0.00 | 76 | 1003.8 |
| 20260509182417 | 17 | 248 | 16.1 | 19.3 | 0.00 | 0.00 | 0.00 | 81 | 1003.6 |
| 20260509175417 | 16 | 259 | 8.0 | 12.9 | 0.00 | 0.00 | 0.00 | 88 | 1004.1 |
| 20260509173917 | 16 | 259 | 11.3 | 22.5 | 0.00 | 0.00 | 0.00 | 88 | 1004.2 |
| 20260509172417 | 16 | 208 | 16.1 | 25.7 | 0.00 | 0.00 | 0.00 | 86 | 1004.5 |
| 20260509165417 | 16 | 216 | 17.7 | 24.1 | 0.00 | 0.00 | 0.00 | 83 | 1004.7 |
| 20260509163917 | 16 | 203 | 19.3 | 25.7 | 0.00 | 0.00 | 0.00 | 85 | 1004.8 |
| 20260509160917 | 16 | 216 | 4.8 | 8.0 | 0.00 | 0.00 | 0.00 | 85 | 1005.1 |
| 20260509153917 | 16 | 219 | 14.5 | 25.7 | 0.00 | 0.00 | 0.00 | 94 | 1005.4 |
| 20260509150917 | 14 | 204 | 12.9 | 19.3 | 0.00 | 0.00 | 0.00 | 98 | 1005.3 |
| 20260509145417 | 15 | 198 | 8.0 | 17.7 | 0.00 | 0.00 | 0.00 | 100 | 1005.2 |
| 20260509143917 | 14 | 131 | 6.4 | 9.7 | 0.00 | 0.00 | 0.00 | 99 | 1005.4 |
| 20260509142417 | 13 | 213 | 9.7 | 16.1 | 0.00 | 0.00 | 0.00 | 100 | 1005.3 |
| 20260509140916 | 13 | 219 | 6.4 | 9.7 | 0.00 | 0.00 | 0.00 | 100 | 1005.4 |
| 20260509135417 | 13 | 86 | 3.2 | 6.4 | 0.00 | 0.00 | 0.00 | 100 | 1005.5 |
| 20260509132417 | 12 | 254 | 3.2 | 4.8 | 0.00 | 0.00 | 0.00 | 100 | 1005.7 |
| 20260509130917 | 11 | 236 | 3.2 | 8.0 | 0.00 | 0.00 | 0.00 | 100 | 1005.7 |
| 20260509125417 | 11 | 232 | 6.4 | 8.0 | 0.00 | 0.00 | 0.00 | 100 | 1005.7 |
| 20260509123917 | 11 | 220 | 4.8 | 9.7 | 0.00 | 0.00 | 0.00 | 100 | 1005.6 |
| 20260509122417 | 10 | 219 | 4.8 | 8.0 | 0.00 | 0.00 | 0.00 | 100 | 1005.6 |
| 20260509120917 | 9 | 194 | 11.3 | 16.1 | 0.00 | 0.00 | 0.00 | 100 | 1005.8 |
| 20260509115416 | 8 | 220 | 0.0 | 0.0 | 0.00 | 0.00 | 0.00 | 100 | 1005.5 |
| 20260509113917 | 7 | 227 | 3.2 | 4.8 | 0.00 | 0.00 | 0.00 | 100 | 1005.4 |
| 20260509112416 | 7 | 254 | 3.2 | 4.8 | 0.00 | 0.00 | 0.00 | 100 | 1005.3 |
| 20260509110917 | 7 | 230 | 3.2 | 6.4 | 0.00 | 0.00 | 0.00 | 100 | 1005.3 |
| 20260509105417 | 6 | 107 | 0.0 | 0.0 | 0.00 | 0.00 | 0.00 | 100 | 1005.3 |
| 20260509103917 | 6 | 253 | 0.0 | 0.0 | 0.00 | 0.00 | 0.00 | 100 | 1005.5 |
| 20260509102417 | 6 | 220 | 0.0 | 0.0 | 0.00 | 0.00 | 0.00 | 100 | 1005.4 |
| 20260509100917 | 6 | 213 | 0.0 | 6.4 | 0.00 | 0.00 | 0.00 | 100 | 1005.5 |
| 20260509095417 | 6 | 196 | 0.0 | 0.0 | 0.00 | 0.00 | 0.00 | 100 | 1005.4 |
| 20260509093916 | 6 | 196 | 0.0 | 0.0 | 0.00 | 0.00 | 0.00 | 100 | 1005.7 |
| 20260509092416 | 6 | 215 | 1.6 | 4.8 | 0.00 | 0.00 | 0.00 | 100 | 1005.9 |
| 20260509090916 | 6 | 213 | 4.8 | 6.4 | 0.00 | 0.00 | 0.00 | 100 | 1005.8 |
| 20260509085416 | 6 | 244 | 3.2 | 3.2 | 0.00 | 0.00 | 0.00 | 100 | 1005.9 |
| 20260509083917 | 5 | 218 | 3.2 | 3.2 | 0.00 | 0.00 | 0.00 | 100 | 1005.9 |
| 20260509082416 | 5 | 238 | 1.6 | 3.2 | 0.00 | 0.00 | 0.00 | 100 | 1005.8 |
| 20260509080916 | 5 | 224 | 1.6 | 3.2 | 0.00 | 0.00 | 0.00 | 100 | 1005.8 |
| 20260509075417 | 5 | 215 | 0.0 | 1.6 | 0.00 | 0.00 | 0.00 | 100 | 1005.7 |
| 20260509072417 | 4 | 206 | 0.0 | 1.6 | 0.00 | 0.00 | 0.00 | 100 | 1005.9 |
| 20260509070917 | 4 | 212 | 0.0 | 0.0 | 0.00 | 0.00 | 0.00 | 100 | 1006.0 |
| 20260509065416 | 4 | 193 | 0.0 | 0.0 | 0.00 | 0.00 | 0.00 | 100 | 1006.2 |
| 20260509063916 | 4 | 220 | 0.0 | 0.0 | 0.00 | 0.00 | 0.00 | 100 | 1006.4 |
| 20260509060917 | 4 | 215 | 0.0 | 3.2 | 0.00 | 0.00 | 0.00 | 97 | 1006.8 |
| 20260509053916 | 5 | 227 | 0.0 | 0.0 | 0.00 | 0.00 | 0.00 | 93 | 1007.2 |
| 20260509052416 | 5 | 228 | 0.0 | 1.6 | 0.00 | 0.00 | 0.00 | 92 | 1007.5 |
| 20260509050917 | 5 | 221 | 1.6 | 3.2 | 0.00 | 0.00 | 0.00 | 93 | 1007.5 |